Time;durP1;ratioP1;P1;durP2;ratioP2;P2;SDS_P1;SDS_P2;PMS_P1;PMS_P2;Temp;Humidity;BMP_temperature;BMP_pressure;BME280_temperature;BME280_humidity;BME280_pressure;Samples;Min_cycle;Max_cycle;Signal;HPM_P1;HPM_P2
2022/07/17 00:01:13;;;;;;;;;4.00;4.00;;;;;22.04;77.77;101942.03;5046598;28;45470;-81
2022/07/17 00:03:39;;;;;;;;;3.33;3.33;;;;;22.04;78.06;101956.81;5054846;28;45794;-81
2022/07/17 00:06:05;;;;;;;;;3.00;3.00;;;;;22.04;78.50;101962.41;5048478;28;46154;-82
2022/07/17 00:08:31;;;;;;;;;10.33;5.67;;;;;21.98;78.92;101966.22;5041473;28;45411;-82
2022/07/17 00:10:57;;;;;;;;;2.00;2.00;;;;;21.93;79.05;101957.78;5032696;28;45387;-83
2022/07/17 00:13:24;;;;;;;;;5.00;2.00;;;;;21.83;79.47;101930.53;5037118;28;46027;-83
2022/07/17 00:15:50;;;;;;;;;3.00;3.00;;;;;21.81;79.42;101949.50;5045339;28;46251;-82
2022/07/17 00:18:16;;;;;;;;;3.00;3.00;;;;;21.78;79.90;101946.34;5043725;28;45699;-83
2022/07/17 00:20:43;;;;;;;;;4.00;4.00;;;;;21.71;80.59;101954.06;5026278;28;45562;-81
2022/07/17 00:23:09;;;;;;;;;3.00;2.00;;;;;21.74;80.76;101965.56;5033160;28;45901;-81
2022/07/17 00:25:34;;;;;;;;;5.33;3.00;;;;;21.63;81.18;101949.75;5042092;28;47068;-82
2022/07/17 00:28:00;;;;;;;;;5.00;3.67;;;;;21.68;81.78;101970.22;5048572;28;45641;-81
2022/07/17 00:30:26;;;;;;;;;3.00;3.00;;;;;21.54;81.67;101949.31;5039791;28;45754;-81
2022/07/17 00:32:52;;;;;;;;;3.00;3.00;;;;;21.57;82.08;101960.00;5039989;28;45829;-79
2022/07/17 00:35:17;;;;;;;;;3.33;2.33;;;;;21.58;82.66;101961.69;5038400;28;47306;-81
2022/07/17 00:37:45;;;;;;;;;2.00;2.00;;;;;21.45;83.01;101951.69;5049706;28;45566;-80
2022/07/17 00:40:13;;;;;;;;;2.67;2.00;;;;;21.50;83.57;101960.16;5047373;28;45718;-81
2022/07/17 00:42:40;;;;;;;;;2.00;2.00;;;;;21.45;83.98;101962.84;5055762;28;45670;-81
2022/07/17 00:45:10;;;;;;;;;2.33;2.33;;;;;21.42;84.04;101957.75;5042726;28;45844;-81
2022/07/17 00:48:02;;;;;;;;;4.33;3.00;;;;;21.39;84.02;101961.03;5041573;28;45757;-83
2022/07/17 00:50:31;;;;;;;;;3.00;2.00;;;;;21.31;84.60;101951.13;5042612;28;45495;-84
2022/07/17 00:52:57;;;;;;;;;3.67;3.67;;;;;21.28;85.39;101953.59;5049639;28;45696;-82
2022/07/17 00:55:23;;;;;;;;;1.33;1.33;;;;;21.26;85.53;101958.59;5025299;28;46184;-83
2022/07/17 00:57:49;;;;;;;;;3.00;2.00;;;;;21.23;85.97;101962.72;5044098;28;45418;-84
2022/07/17 01:00:16;;;;;;;;;2.00;2.00;;;;;21.20;86.12;101960.44;5059027;28;45445;-83
2022/07/17 01:02:46;;;;;;;;;3.67;3.00;;;;;21.08;86.26;101951.28;5024424;28;45940;-83
2022/07/17 01:05:11;;;;;;;;;4.33;2.33;;;;;21.12;86.56;101956.13;5059015;28;46597;-81
2022/07/17 01:07:37;;;;;;;;;2.67;2.67;;;;;21.04;86.64;101950.09;5043158;28;45754;-81
2022/07/17 01:10:03;;;;;;;;;3.67;3.00;;;;;21.08;87.15;101971.66;5035391;28;45465;-84
2022/07/17 01:12:29;;;;;;;;;4.00;2.00;;;;;21.05;87.07;101974.94;5048973;28;45744;-81
2022/07/17 01:14:57;;;;;;;;;3.00;3.00;;;;;20.98;87.08;101963.91;5049661;28;45414;-81
2022/07/17 01:17:23;;;;;;;;;3.00;3.00;;;;;20.95;87.59;101961.63;5029998;28;45833;-82
2022/07/17 01:19:49;;;;;;;;;4.00;4.00;;;;;20.97;87.78;101965.03;5045495;28;45784;-82
2022/07/17 01:22:14;;;;;;;;;3.00;3.00;;;;;20.95;87.92;101970.00;5056118;28;45793;-82
2022/07/17 01:24:41;;;;;;;;;3.33;3.33;;;;;20.81;88.59;101944.34;5053706;28;46125;-83
2022/07/17 01:27:07;;;;;;;;;2.00;2.00;;;;;20.89;88.43;101971.00;5047596;28;45378;-81
2022/07/17 01:29:35;;;;;;;;;3.00;3.00;;;;;20.74;89.09;101946.44;5044416;28;45392;-83
2022/07/17 01:32:00;;;;;;;;;3.00;2.00;;;;;20.83;88.70;101965.56;5044312;28;45865;-83
2022/07/17 01:34:26;;;;;;;;;2.00;2.00;;;;;20.80;89.28;101973.31;5040749;28;45611;-83
2022/07/17 01:36:51;;;;;;;;;5.00;4.00;;;;;20.75;89.38;101964.88;5040323;28;45704;-82
2022/07/17 01:39:17;;;;;;;;;2.00;2.00;;;;;20.70;89.75;101955.56;5063202;28;45412;-84
2022/07/17 01:41:45;;;;;;;;;2.00;2.00;;;;;20.71;89.99;101957.25;5064371;28;45250;-83
2022/07/17 01:44:11;;;;;;;;;1.67;1.67;;;;;20.70;90.50;101966.69;5058046;28;45480;-83
2022/07/17 01:46:36;;;;;;;;;3.00;2.67;;;;;20.66;90.52;101955.22;5049477;28;45297;-83
2022/07/17 01:49:02;;;;;;;;;2.67;2.67;;;;;20.66;90.89;101954.34;5055550;28;44794;-83
2022/07/17 01:51:28;;;;;;;;;4.00;4.00;;;;;20.58;91.42;101948.06;5041271;28;45406;-84
2022/07/17 01:53:54;;;;;;;;;2.00;2.00;;;;;20.57;91.85;101951.94;5040484;28;45836;-82
2022/07/17 01:56:19;;;;;;;;;2.67;2.00;;;;;20.53;92.19;101949.88;5043512;28;45419;-84
2022/07/17 01:58:45;;;;;;;;;6.00;3.00;;;;;20.48;92.39;101950.63;5045774;28;46105;-84
2022/07/17 02:01:11;;;;;;;;;2.33;2.33;;;;;20.39;92.52;101935.34;5063213;28;45530;-82
2022/07/17 02:03:36;;;;;;;;;3.00;3.00;;;;;20.41;93.42;101942.38;5049067;28;46151;-82
2022/07/17 02:06:02;;;;;;;;;2.33;2.33;;;;;20.37;93.66;101934.75;5024339;28;45542;-83
2022/07/17 02:08:27;;;;;;;;;2.00;2.00;;;;;20.34;93.92;101947.25;5042418;28;45807;-82
2022/07/17 02:10:53;;;;;;;;;2.33;2.33;;;;;20.26;94.39;101933.69;5051543;28;45774;-82
2022/07/17 02:13:18;;;;;;;;;2.00;2.00;;;;;20.26;94.68;101945.69;5043238;28;45456;-83
2022/07/17 02:15:44;;;;;;;;;2.00;2.00;;;;;20.24;95.23;101947.00;5055057;28;45401;-84
2022/07/17 02:18:10;;;;;;;;;3.00;1.33;;;;;20.22;95.52;101938.06;5042900;28;45722;-83
2022/07/17 02:20:35;;;;;;;;;1.00;1.00;;;;;20.18;96.03;101942.41;5032007;28;45917;-81
2022/07/17 02:23:01;;;;;;;;;3.67;3.00;;;;;20.03;96.20;101927.06;5051682;28;45428;-81
2022/07/17 02:25:27;;;;;;;;;4.33;3.67;;;;;19.99;96.21;101922.25;5038375;28;44759;-81
2022/07/17 02:27:52;;;;;;;;;2.00;2.00;;;;;20.04;96.42;101927.91;5047718;28;45495;-81
2022/07/17 02:30:18;;;;;;;;;4.67;3.67;;;;;19.95;96.72;101927.44;5054858;28;45603;-83
2022/07/17 02:32:44;;;;;;;;;4.67;4.67;;;;;19.89;97.32;101928.41;5043474;28;46205;-83
2022/07/17 02:35:12;;;;;;;;;4.00;4.00;;;;;19.92;97.56;101937.13;5055858;28;45687;-82
2022/07/17 02:37:38;;;;;;;;;6.33;5.00;;;;;19.89;98.04;101943.16;5022948;28;45529;-84
2022/07/17 02:40:05;;;;;;;;;5.67;4.00;;;;;19.84;98.01;101934.69;5066345;28;46765;-82
2022/07/17 02:42:31;;;;;;;;;4.67;4.00;;;;;19.79;98.50;101945.72;5059190;28;46343;-83
2022/07/17 02:44:58;;;;;;;;;5.00;4.00;;;;;19.75;99.08;101941.69;5048593;28;45760;-83
2022/07/17 02:47:26;;;;;;;;;5.33;4.00;;;;;19.68;99.46;101944.56;5057120;28;45508;-83
2022/07/17 02:49:52;;;;;;;;;6.67;4.00;;;;;19.58;99.47;101927.63;5059732;28;45437;-82
2022/07/17 02:52:18;;;;;;;;;8.67;5.33;;;;;19.52;100.00;101932.25;5041836;28;45793;-84
2022/07/17 02:54:44;;;;;;;;;7.00;6.33;;;;;19.58;100.00;101942.41;5034132;28;45505;-81
2022/07/17 02:57:10;;;;;;;;;13.67;10.67;;;;;19.50;100.00;101925.22;5026307;28;45586;-82
2022/07/17 02:59:37;;;;;;;;;18.00;14.33;;;;;19.47;100.00;101937.66;5059914;28;45374;-83
2022/07/17 03:02:02;;;;;;;;;22.67;17.67;;;;;19.44;100.00;101934.53;5040807;28;48536;-82
2022/07/17 03:04:28;;;;;;;;;22.00;17.33;;;;;19.44;100.00;101931.75;5040192;28;45518;-82
2022/07/17 03:06:54;;;;;;;;;23.67;21.33;;;;;19.28;100.00;101911.03;5054765;28;45453;-82
2022/07/17 03:09:19;;;;;;;;;28.00;26.00;;;;;19.40;100.00;101936.91;5061717;28;45988;-82
2022/07/17 03:11:44;;;;;;;;;32.67;27.00;;;;;19.35;100.00;101934.00;5056302;28;45244;-84
2022/07/17 03:14:10;;;;;;;;;28.33;23.00;;;;;19.33;100.00;101931.47;5050281;28;45499;-83
2022/07/17 03:16:36;;;;;;;;;27.00;23.00;;;;;19.32;100.00;101928.94;5040560;28;46034;-84
2022/07/17 03:19:01;;;;;;;;;23.67;20.67;;;;;19.26;100.00;101921.53;5058867;28;45998;-81
2022/07/17 03:21:27;;;;;;;;;29.33;24.00;;;;;19.29;100.00;101923.84;5036973;28;46816;-81
2022/07/17 03:23:52;;;;;;;;;28.00;25.00;;;;;19.25;100.00;101933.75;5050255;28;45424;-80
2022/07/17 03:26:18;;;;;;;;;36.33;25.33;;;;;19.23;100.00;101936.75;5068305;28;45418;-80
2022/07/17 03:28:43;;;;;;;;;30.67;27.00;;;;;19.20;100.00;101937.25;5046650;28;45609;-81
2022/07/17 03:31:09;;;;;;;;;27.33;21.00;;;;;19.18;100.00;101940.25;5058897;28;45457;-83
2022/07/17 03:33:34;;;;;;;;;34.33;27.67;;;;;19.18;100.00;101956.13;5056488;28;45387;-82
2022/07/17 03:36:00;;;;;;;;;29.67;21.00;;;;;19.11;100.00;101936.72;5063884;28;45403;-81
2022/07/17 03:38:25;;;;;;;;;24.00;21.00;;;;;19.07;100.00;101929.94;5062650;28;45707;-79
2022/07/17 03:40:50;;;;;;;;;20.33;17.00;;;;;19.06;100.00;101944.94;5040231;28;47994;-81
2022/07/17 03:43:16;;;;;;;;;21.33;18.33;;;;;19.15;100.00;101954.66;5040633;28;45363;-81
2022/07/17 03:45:42;;;;;;;;;16.33;15.67;;;;;19.15;100.00;101951.88;5024440;28;45434;-79
2022/07/17 03:48:08;;;;;;;;;14.00;11.67;;;;;19.13;100.00;101956.81;5049555;28;45793;-79
2022/07/17 03:50:33;;;;;;;;;10.67;7.67;;;;;19.13;100.00;101965.16;5057712;28;45848;-80
2022/07/17 03:52:59;;;;;;;;;7.00;6.67;;;;;19.14;100.00;101961.28;5053757;28;45551;-79
2022/07/17 03:55:25;;;;;;;;;6.33;3.67;;;;;19.13;100.00;101965.16;5051456;28;45372;-83
2022/07/17 03:57:50;;;;;;;;;7.00;7.00;;;;;19.14;100.00;101971.56;5061441;28;45509;-81
2022/07/17 04:00:16;;;;;;;;;4.00;4.00;;;;;19.13;100.00;101955.97;5042266;28;46822;-81
2022/07/17 04:02:42;;;;;;;;;3.00;3.00;;;;;19.12;100.00;101952.34;5045350;28;45577;-80
2022/07/17 04:05:09;;;;;;;;;3.67;3.67;;;;;19.02;100.00;101941.78;5056080;28;45685;-80
2022/07/17 04:07:37;;;;;;;;;2.67;2.67;;;;;19.11;100.00;101949.78;5050084;28;45808;-81
2022/07/17 04:10:03;;;;;;;;;3.00;3.00;;;;;19.04;100.00;101933.19;5032815;28;45751;-75
2022/07/17 04:12:29;;;;;;;;;5.00;3.00;;;;;19.12;100.00;101948.72;5042131;28;45379;-77
2022/07/17 04:14:54;;;;;;;;;3.00;3.00;;;;;19.27;100.00;101948.28;5029813;28;45468;-76
2022/07/17 04:17:20;;;;;;;;;4.00;3.67;;;;;19.41;100.00;101953.38;5044686;28;45617;-76
2022/07/17 04:19:46;;;;;;;;;3.00;2.00;;;;;19.54;100.00;101957.88;5021921;28;47262;-78
2022/07/17 04:22:12;;;;;;;;;2.00;2.00;;;;;19.68;100.00;101949.31;5026203;28;45624;-76
2022/07/17 04:24:37;;;;;;;;;3.00;2.67;;;;;19.90;100.00;101964.34;5034624;28;45712;-76
2022/07/17 04:27:03;;;;;;;;;0.00;0.00;;;;;20.08;100.00;101965.34;5033287;28;46260;-75
2022/07/17 04:29:29;;;;;;;;;5.00;4.00;;;;;20.43;100.00;101982.00;5045119;28;46344;-77
2022/07/17 04:31:55;;;;;;;;;2.00;2.00;;;;;20.65;100.00;101972.97;5031884;28;45431;-76
2022/07/17 04:34:20;;;;;;;;;3.33;3.00;;;;;21.03;97.56;101982.69;5045241;28;45448;-75
2022/07/17 04:36:45;;;;;;;;;2.33;2.33;;;;;21.37;95.34;101984.72;5013448;28;47493;-76
2022/07/17 04:39:11;;;;;;;;;3.33;2.00;;;;;21.62;93.50;101990.78;5024150;28;47957;-76
2022/07/17 04:41:36;;;;;;;;;3.00;3.00;;;;;21.89;92.10;101992.03;5033116;28;45890;-77
2022/07/17 04:44:02;;;;;;;;;3.00;1.33;;;;;22.25;90.20;102007.44;5036381;28;45725;-76
2022/07/17 04:46:27;;;;;;;;;3.33;2.00;;;;;22.53;87.54;102011.19;5042305;28;45483;-77
2022/07/17 04:48:53;;;;;;;;;3.00;3.00;;;;;22.82;85.85;102008.22;5028365;28;46903;-77
2022/07/17 04:51:18;;;;;;;;;2.33;2.33;;;;;23.22;83.55;102012.66;5013929;28;45505;-76
2022/07/17 04:53:44;;;;;;;;;3.00;3.00;;;;;23.56;80.21;102007.66;5029164;28;46438;-75
2022/07/17 04:56:09;;;;;;;;;2.00;2.00;;;;;23.93;77.42;102006.88;5031877;28;45845;-75
2022/07/17 04:58:35;;;;;;;;;2.00;2.00;;;;;24.26;74.52;101998.41;5045653;28;47785;-75
2022/07/17 05:01:00;;;;;;;;;3.00;3.00;;;;;24.72;71.16;102003.47;5048030;28;45410;-77
2022/07/17 05:03:25;;;;;;;;;1.00;1.00;;;;;24.91;69.25;102003.78;5031787;28;45403;-75
2022/07/17 05:05:51;;;;;;;;;3.33;2.00;;;;;25.14;67.00;102008.09;5044110;28;45774;-77
2022/07/17 05:08:18;;;;;;;;;3.00;1.67;;;;;25.48;64.74;102007.59;5045777;28;46856;-77
2022/07/17 05:10:44;;;;;;;;;1.00;1.00;;;;;25.81;61.68;102011.84;5053824;28;45841;-79
2022/07/17 05:13:09;;;;;;;;;4.00;2.00;;;;;26.08;59.26;102005.09;5044852;28;45873;-76
2022/07/17 05:15:34;;;;;;;;;3.00;2.00;;;;;26.46;57.67;102021.63;5030635;28;45679;-78
2022/07/17 05:18:00;;;;;;;;;2.00;2.00;;;;;26.66;55.30;102020.69;5039044;28;45729;-75
2022/07/17 05:20:26;;;;;;;;;3.00;1.67;;;;;26.99;53.45;102013.53;5050415;28;45512;-74
2022/07/17 05:22:51;;;;;;;;;3.00;3.00;;;;;27.25;51.96;102016.22;5055156;28;45427;-80
2022/07/17 05:25:18;;;;;;;;;2.00;2.00;;;;;27.64;49.92;102026.69;5039010;28;45394;-81
2022/07/17 05:27:45;;;;;;;;;1.00;1.00;;;;;27.89;48.32;102020.00;5053989;28;45539;-77
2022/07/17 05:30:10;;;;;;;;;3.67;3.00;;;;;28.15;47.46;102016.97;5046859;28;45748;-77
2022/07/17 05:32:36;;;;;;;;;2.00;2.00;;;;;28.52;45.69;102009.78;5035667;28;45826;-77
2022/07/17 05:35:01;;;;;;;;;3.00;1.67;;;;;28.75;44.72;102015.75;5031257;28;46567;-76
2022/07/17 05:37:26;;;;;;;;;2.00;2.00;;;;;28.77;44.20;102016.28;5052243;28;45540;-76
2022/07/17 05:39:52;;;;;;;;;2.00;2.00;;;;;28.85;43.42;102021.28;5037268;28;45397;-74
2022/07/17 05:42:17;;;;;;;;;2.00;2.00;;;;;28.94;43.00;102016.63;5051785;28;45426;-72
2022/07/17 05:44:46;;;;;;;;;4.67;2.33;;;;;29.03;42.54;102019.63;5041652;28;45462;-78
2022/07/17 05:47:12;;;;;;;;;1.67;1.67;;;;;29.20;42.11;102000.13;5034560;28;45627;-77
2022/07/17 05:49:38;;;;;;;;;3.33;3.33;;;;;29.50;41.07;102011.31;5050260;28;45516;-79
2022/07/17 05:52:05;;;;;;;;;2.33;2.00;;;;;29.49;40.68;102012.44;5044999;28;45379;-81
2022/07/17 05:54:32;;;;;;;;;2.33;2.33;;;;;29.55;40.53;102016.88;5057419;28;45474;-79
2022/07/17 05:56:59;;;;;;;;;3.33;3.33;;;;;29.65;40.39;102018.72;5039946;28;45625;-81
2022/07/17 05:59:24;;;;;;;;;2.67;2.67;;;;;29.31;40.46;102016.97;5055515;28;45458;-79
2022/07/17 06:01:52;;;;;;;;;5.67;2.00;;;;;29.45;40.70;102020.72;5062893;28;45464;-77
2022/07/17 06:04:18;;;;;;;;;5.67;3.33;;;;;30.04;39.51;102023.97;5045195;28;45645;-81
2022/07/17 06:06:47;;;;;;;;;4.00;2.33;;;;;30.72;38.65;102021.56;5035280;28;45447;-81
2022/07/17 06:09:14;;;;;;;;;4.67;2.67;;;;;31.31;36.53;102015.19;5033428;28;45506;-79
2022/07/17 06:11:39;;;;;;;;;2.67;2.67;;;;;31.93;35.93;102025.03;5036849;28;45558;-80
2022/07/17 06:14:06;;;;;;;;;2.33;2.33;;;;;32.51;34.27;102021.16;5034302;28;46026;-78
2022/07/17 06:16:32;;;;;;;;;5.00;3.33;;;;;33.07;33.42;102014.97;5042896;28;46921;-79
2022/07/17 06:19:20;;;;;;;;;3.67;2.67;;;;;33.54;32.56;102022.91;5051839;28;45379;-84
2022/07/17 06:21:49;;;;;;;;;2.33;2.33;;;;;33.93;31.30;102019.03;5033731;28;45564;-86
2022/07/17 06:24:14;;;;;;;;;2.00;2.00;;;;;34.34;30.75;102021.63;5036922;28;46090;-84
2022/07/17 06:26:42;;;;;;;;;1.33;1.33;;;;;34.49;30.34;101986.84;5030722;28;47209;-83
2022/07/17 06:29:08;;;;;;;;;5.00;4.00;;;;;35.04;29.51;102016.38;5031364;28;45574;-84
2022/07/17 06:31:38;;;;;;;;;3.00;3.00;;;;;35.35;29.37;102015.19;5029976;28;45642;-82
2022/07/17 06:34:06;;;;;;;;;2.00;2.00;;;;;35.75;28.77;102017.50;5022569;28;45650;-84
2022/07/17 06:36:49;;;;;;;;;2.00;2.00;;;;;36.10;28.24;102016.31;5028588;28;49061;-83
2022/07/17 06:39:19;;;;;;;;;2.67;2.00;;;;;36.20;27.53;101998.69;5029158;28;46061;-85
2022/07/17 06:41:57;;;;;;;;;2.33;2.33;;;;;36.43;27.20;101995.44;5023763;28;45861;-81
2022/07/17 06:44:26;;;;;;;;;1.50;1.50;;;;;36.66;26.73;101993.72;5030952;28;46028;-82
2022/07/17 06:46:58;;;;;;;;;1.75;1.75;;;;;36.80;26.16;101972.53;5029205;28;45504;-83
2022/07/17 06:49:23;;;;;;;;;2.00;2.00;;;;;37.16;25.66;102002.25;5033824;28;45507;-80
2022/07/17 06:51:49;;;;;;;;;2.00;2.00;;;;;37.57;25.56;101998.19;5025496;28;45837;-80
2022/07/17 06:54:25;;;;;;;;;2.25;2.25;;;;;37.77;24.42;102004.94;5033837;28;45904;-83
2022/07/17 06:56:54;;;;;;;;;4.00;2.67;;;;;37.62;24.30;101982.78;5037782;28;45083;-81
2022/07/17 06:59:20;;;;;;;;;1.75;1.75;;;;;37.11;24.75;101946.13;5023699;28;45979;-80
2022/07/17 07:01:46;;;;;;;;;3.00;3.00;;;;;37.27;24.58;101980.56;5022401;28;45947;-82
2022/07/17 07:04:12;;;;;;;;;1.00;1.00;;;;;37.60;24.63;101990.91;5038417;28;45612;-81
2022/07/17 07:06:37;;;;;;;;;2.00;2.00;;;;;37.82;24.19;101974.34;5045570;28;45559;-78
2022/07/17 07:09:12;;;;;;;;;2.67;2.00;;;;;37.92;23.87;101994.72;5033745;28;45752;-83
2022/07/17 07:11:39;;;;;;;;;2.00;1.00;;;;;38.18;23.67;102004.84;5039647;28;45607;-78
2022/07/17 07:14:05;;;;;;;;;2.67;1.67;;;;;38.31;23.78;101991.22;5029338;28;46522;-80
2022/07/17 07:16:31;;;;;;;;;1.33;1.33;;;;;38.69;23.22;102004.09;5027708;28;48035;-81
2022/07/17 07:18:56;;;;;;;;;1.75;1.75;;;;;38.99;22.58;102003.53;5040857;28;45506;-79
2022/07/17 07:21:23;;;;;;;;;3.00;2.00;;;;;39.20;22.80;101992.56;5039774;28;45750;-79
2022/07/17 07:23:48;;;;;;;;;2.33;2.33;;;;;39.54;21.98;102007.22;5027180;28;47148;-79
2022/07/17 07:26:14;;;;;;;;;3.33;1.33;;;;;39.56;22.37;102008.91;5036871;28;46578;-78
2022/07/17 07:28:46;;;;;;;;;1.50;1.50;;;;;39.73;21.85;102008.41;5041813;28;45577;-78
2022/07/17 07:31:12;;;;;;;;;1.33;1.33;;;;;40.05;21.37;101985.25;5038376;28;45821;-78
2022/07/17 07:33:38;;;;;;;;;1.67;1.67;;;;;40.61;20.90;102009.63;5022507;28;46045;-78
2022/07/17 07:36:04;;;;;;;;;2.67;2.67;;;;;40.84;20.77;102002.97;5026605;28;47901;-78
2022/07/17 07:38:29;;;;;;;;;2.00;2.00;;;;;40.97;20.47;102003.59;5041687;28;45493;-80
2022/07/17 07:40:55;;;;;;;;;2.00;2.00;;;;;41.21;20.33;101999.41;5045373;28;45325;-82
2022/07/17 07:43:21;;;;;;;;;1.67;1.67;;;;;41.43;20.18;101997.66;5039197;28;46462;-80
2022/07/17 07:45:50;;;;;;;;;10.33;9.33;;;;;41.84;19.90;101997.72;5036379;28;48143;-82
2022/07/17 07:48:15;;;;;;;;;3.00;3.00;;;;;42.11;19.79;101986.03;5047228;28;45368;-77
2022/07/17 07:50:41;;;;;;;;;3.00;3.00;;;;;42.30;19.43;102000.22;5034313;28;45944;-77
2022/07/17 07:53:09;;;;;;;;;1.00;1.00;;;;;42.37;19.09;101987.94;5024366;28;45991;-77
2022/07/17 07:55:37;;;;;;;;;2.00;2.00;;;;;42.45;19.34;101980.97;5040379;28;47446;-77
2022/07/17 07:58:10;;;;;;;;;4.67;3.00;;;;;42.72;18.92;101989.44;5042102;28;45700;-78
2022/07/17 08:00:36;;;;;;;;;1.00;1.00;;;;;42.73;18.28;101982.44;5033180;28;45770;-76
2022/07/17 08:03:02;;;;;;;;;1.00;1.00;;;;;43.00;18.17;101983.03;5038028;28;45513;-78
2022/07/17 08:05:28;;;;;;;;;1.75;1.75;;;;;43.54;18.19;101983.25;5031537;28;45547;-76
2022/07/17 08:07:54;;;;;;;;;2.00;2.00;;;;;43.91;17.90;101987.06;5048720;28;45812;-76
2022/07/17 08:10:20;;;;;;;;;1.33;1.33;;;;;43.98;17.44;101986.25;5043963;28;45842;-81
2022/07/17 08:12:45;;;;;;;;;1.00;1.00;;;;;44.07;17.43;101987.47;5034175;28;45437;-82
2022/07/17 08:15:11;;;;;;;;;1.00;1.00;;;;;44.27;17.26;101975.53;5035732;28;45898;-79
2022/07/17 08:17:37;;;;;;;;;2.00;2.00;;;;;44.86;16.95;101998.19;5041844;28;45657;-83
2022/07/17 08:20:03;;;;;;;;;1.67;1.67;;;;;45.11;16.77;101966.28;5042215;28;45841;-81
2022/07/17 08:22:28;;;;;;;;;1.00;1.00;;;;;45.07;16.46;101964.66;5046300;28;45545;-80
2022/07/17 08:24:54;;;;;;;;;1.00;1.00;;;;;45.30;16.28;101993.94;5038161;28;46353;-85
2022/07/17 08:27:58;;;;;;;;;1.00;1.00;;;;;44.85;16.17;101956.00;5041254;28;45876;-86
2022/07/17 08:30:23;;;;;;;;;1.00;1.00;;;;;44.80;16.15;101994.06;5028392;28;45490;-83
2022/07/17 08:32:49;;;;;;;;;1.67;1.00;;;;;44.57;16.56;101963.50;5025660;28;46318;-80
2022/07/17 08:35:15;;;;;;;;;2.33;1.00;;;;;44.55;16.20;101976.75;5038998;28;46083;-79
2022/07/17 08:37:51;;;;;;;;;1.00;1.00;;;;;44.76;16.21;101993.25;5039572;28;44829;-78
2022/07/17 08:40:28;;;;;;;;;2.00;2.00;;;;;44.48;16.20;101986.28;5023395;28;45580;-75
2022/07/17 08:42:55;;;;;;;;;1.00;1.00;;;;;44.76;16.04;101985.38;5036401;28;45897;-77
2022/07/17 08:45:21;;;;;;;;;1.00;1.00;;;;;44.96;15.78;101984.94;5034464;28;45518;-81
2022/07/17 08:47:49;;;;;;;;;2.33;2.33;;;;;45.15;16.00;101974.94;5028728;28;45590;-79
2022/07/17 08:50:15;;;;;;;;;1.00;1.00;;;;;45.49;15.27;101968.59;5029796;28;45699;-79
2022/07/17 08:52:42;;;;;;;;;2.33;1.00;;;;;45.76;15.09;101979.59;5031695;28;45768;-78
2022/07/17 08:55:13;;;;;;;;;1.00;1.00;;;;;45.72;15.32;101959.31;5030654;28;46238;-80
2022/07/17 08:57:43;;;;;;;;;2.00;1.00;;;;;45.55;15.04;101969.78;5033511;28;45531;-81
2022/07/17 09:00:19;;;;;;;;;1.00;1.00;;;;;45.28;15.39;101973.22;5029674;28;46065;-81
2022/07/17 09:03:09;;;;;;;;;1.33;1.00;;;;;45.40;15.49;101980.63;5016563;28;45873;-82
2022/07/17 09:05:44;;;;;;;;;2.00;1.00;;;;;45.42;15.05;101980.22;5018311;28;45482;-81
2022/07/17 09:08:22;;;;;;;;;9.00;8.00;;;;;45.42;15.31;101969.44;5041253;28;45787;-80
2022/07/17 09:10:53;;;;;;;;;1.00;1.00;;;;;45.33;15.31;101962.44;5048266;28;45614;-80
2022/07/17 09:13:31;;;;;;;;;1.00;1.00;;;;;45.78;14.62;101977.94;5026545;28;46708;-83
2022/07/17 09:16:09;;;;;;;;;1.00;1.00;;;;;45.70;14.56;101967.63;5043558;28;45762;-80
2022/07/17 09:18:57;;;;;;;;;3.00;3.00;;;;;45.62;14.30;101963.13;5027136;28;45493;-81
2022/07/17 09:21:45;;;;;;;;;;;;;;;;;;;;;
2022/07/17 09:24:11;;;;;;;;;2.00;1.00;;;;;44.89;14.92;101945.25;5032861;28;74007;-81
2022/07/17 09:26:46;;;;;;;;;2.00;2.00;;;;;44.78;14.97;101974.22;5025657;28;46728;-80
2022/07/17 09:29:12;;;;;;;;;2.00;2.00;;;;;44.94;14.95;101988.22;5045012;28;45614;-81
2022/07/17 09:31:38;;;;;;;;;2.00;2.00;;;;;45.03;15.12;101984.91;5029566;28;45489;-79
2022/07/17 09:34:04;;;;;;;;;1.00;1.00;;;;;45.15;14.66;101977.84;5033343;28;45949;-80
2022/07/17 09:36:30;;;;;;;;;2.33;2.33;;;;;45.28;14.42;101979.00;5036666;28;45630;-79
2022/07/17 09:39:06;;;;;;;;;3.00;3.00;;;;;45.24;14.43;101942.63;5037326;28;45461;-86
2022/07/17 09:41:57;;;;;;;;;1.67;1.67;;;;;45.95;14.29;101976.16;5044539;28;45407;-84
2022/07/17 10:16:45;;;;;;;;;1.00;1.00;;;;;47.43;12.27;101977.53;4889875;28;45573;-82
2022/07/17 10:19:30;;;;;;;;;1.00;1.00;;;;;47.53;12.44;101967.00;4995335;28;45933;-86
2022/07/17 10:22:04;;;;;;;;;4.00;4.00;;;;;47.59;11.98;101952.78;5017271;28;45808;-85
2022/07/17 10:24:30;;;;;;;;;2.67;2.00;;;;;47.66;12.01;101952.69;5032086;28;47074;-83
2022/07/17 10:26:57;;;;;;;;;1.00;1.00;;;;;47.51;12.15;101966.63;5016652;28;46662;-83
2022/07/17 10:29:38;;;;;;;;;2.00;2.00;;;;;47.70;12.17;101967.97;5019093;28;45462;-84
2022/07/17 10:32:13;;;;;;;;;2.00;2.00;;;;;48.41;12.43;101973.88;5011308;28;45490;-83
2022/07/17 10:35:04;;;;;;;;;0.67;0.67;;;;;48.69;11.24;101954.22;5030623;28;45914;-83
2022/07/17 10:37:36;;;;;;;;;2.67;2.67;;;;;48.50;11.70;101971.22;5021792;28;46109;-83
2022/07/17 10:40:07;;;;;;;;;2.00;2.00;;;;;48.50;12.04;101982.06;5004243;28;45506;-82
2022/07/17 10:43:10;;;;;;;;;;;;;;;;;;;;;
2022/07/17 10:49:16;;;;;;;;;2.00;1.67;;;;;48.76;11.39;101954.06;4970896;28;45452;-77
2022/07/17 10:51:44;;;;;;;;;2.67;2.67;;;;;48.78;10.93;101975.66;4994821;28;45467;-78
2022/07/17 10:54:10;;;;;;;;;31.00;28.33;;;;;48.63;11.01;101979.28;5001993;28;45827;-79
2022/07/17 10:56:36;;;;;;;;;2.00;2.00;;;;;47.95;10.99;101952.22;4999077;28;45673;-78
2022/07/17 10:59:02;;;;;;;;;1.67;1.67;;;;;47.70;11.25;101953.44;5016872;28;48227;-76
2022/07/17 11:01:32;;;;;;;;;2.00;2.00;;;;;47.81;11.38;101959.13;5004026;28;45594;-77
2022/07/17 11:04:01;;;;;;;;;1.00;1.00;;;;;47.34;11.32;101972.25;5001361;28;45844;-78
2022/07/17 11:06:38;;;;;;;;;3.00;2.67;;;;;46.91;11.41;101955.34;5008560;28;45829;-76
2022/07/17 11:09:13;;;;;;;;;1.00;1.00;;;;;46.57;11.80;101969.81;5023140;28;46626;-79
2022/07/17 11:11:49;;;;;;;;;2.67;2.67;;;;;46.47;11.84;101957.06;5018947;28;45346;-76
2022/07/17 11:14:26;;;;;;;;;1.00;1.00;;;;;45.92;11.70;101944.28;5013668;28;45883;-78
2022/07/17 11:17:13;;;;;;;;;2.00;2.00;;;;;45.31;12.01;101965.78;5009906;28;46512;-78
2022/07/17 11:19:41;;;;;;;;;3.00;1.00;;;;;44.75;12.54;101943.25;4997448;28;45826;-79
2022/07/17 11:22:12;;;;;;;;;2.00;1.00;;;;;44.41;13.05;101955.25;5012731;28;45578;-78
2022/07/17 11:24:47;;;;;;;;;1.00;1.00;;;;;43.86;13.74;101913.13;5004049;28;45479;-78
2022/07/17 11:27:22;;;;;;;;;2.00;2.00;;;;;43.26;13.33;101952.19;5017757;28;45831;-82
2022/07/17 11:29:49;;;;;;;;;1.67;1.67;;;;;42.14;13.99;101944.88;5023618;28;47581;-83
2022/07/17 11:32:15;;;;;;;;;2.00;2.00;;;;;41.34;14.83;101942.44;5030721;28;45876;-84
2022/07/17 11:34:41;;;;;;;;;5.33;5.33;;;;;40.45;14.78;101923.50;5024531;28;45810;-85
2022/07/17 11:37:08;;;;;;;;;1.33;1.33;;;;;40.04;15.50;101951.97;5035224;28;45462;-79
2022/07/17 11:39:46;;;;;;;;;2.00;2.00;;;;;38.99;16.34;101912.56;5020367;28;45735;-81
2022/07/17 11:42:18;;;;;;;;;2.00;2.00;;;;;38.31;16.38;101945.38;5023881;28;45402;-80
2022/07/17 11:44:44;;;;;;;;;0.75;0.75;;;;;37.40;16.97;101936.41;5020507;28;45607;-79
2022/07/17 11:47:11;;;;;;;;;1.00;1.00;;;;;36.38;18.09;101927.91;5026806;28;45719;-77
2022/07/17 11:49:40;;;;;;;;;2.00;2.00;;;;;35.74;17.96;101929.38;5025007;28;46067;-78
2022/07/17 11:52:10;;;;;;;;;1.00;1.00;;;;;35.35;18.66;101930.44;5025001;28;45466;-77
2022/07/17 11:54:49;;;;;;;;;1.00;1.00;;;;;34.75;19.04;101928.88;5007720;28;45410;-78
2022/07/17 11:57:19;;;;;;;;;2.00;2.00;;;;;34.31;19.18;101932.00;5024160;28;45486;-82
2022/07/17 11:59:46;;;;;;;;;1.00;0.00;;;;;33.78;19.43;101917.13;5037255;28;45377;-84
2022/07/17 12:02:17;;;;;;;;;2.33;2.00;;;;;33.38;19.92;101923.88;5030955;28;45230;-83
2022/07/17 12:04:50;;;;;;;;;2.00;2.00;;;;;33.07;20.15;101912.66;5037610;28;45732;-83